createdAt,value
2022-08-16T00:02:32.130Z,21.98
2022-08-16T00:04:59.012Z,24.00
2022-08-16T00:07:29.092Z,22.13
2022-08-16T00:09:57.947Z,22.10
2022-08-16T00:12:28.135Z,19.80
2022-08-16T00:14:56.374Z,22.27
2022-08-16T00:17:25.673Z,20.40
2022-08-16T00:19:53.687Z,22.23
2022-08-16T00:22:25.570Z,21.90
2022-08-16T00:24:55.210Z,24.55
2022-08-16T00:27:23.263Z,21.65
2022-08-16T00:30:08.256Z,26.50
2022-08-16T00:32:40.601Z,24.17
2022-08-16T00:35:15.660Z,22.65
2022-08-16T00:37:58.947Z,25.35
2022-08-16T00:40:50.771Z,24.52
2022-08-16T00:43:42.480Z,24.63
2022-08-16T00:46:36.254Z,24.80
2022-08-16T00:49:18.949Z,21.42
2022-08-16T00:51:47.782Z,24.67
2022-08-16T00:54:24.674Z,25.80
2022-08-16T00:56:57.573Z,25.48
2022-08-16T00:59:30.051Z,27.00
2022-08-16T01:02:01.084Z,22.42
2022-08-16T01:05:10.855Z,24.42
2022-08-16T01:07:51.150Z,24.30
2022-08-16T01:10:32.201Z,26.48
2022-08-16T01:13:06.532Z,27.65
2022-08-16T01:15:36.233Z,26.88
2022-08-16T01:18:08.439Z,25.42
2022-08-16T01:21:33.759Z,25.13
2022-08-16T01:24:53.678Z,30.15
2022-08-16T01:27:30.995Z,24.77
2022-08-16T01:30:20.547Z,25.38
2022-08-16T01:33:01.407Z,25.80
2022-08-16T01:35:43.656Z,28.67
2022-08-16T01:38:28.201Z,27.10
2022-08-16T01:41:02.994Z,24.60
2022-08-16T01:43:31.774Z,31.95
2022-08-16T01:46:37.791Z,29.05
2022-08-16T01:48:53.563Z,24.33
2022-08-16T01:51:23.601Z,25.70
2022-08-16T01:53:55.277Z,24.65
2022-08-16T01:56:24.909Z,25.02
2022-08-16T01:58:55.004Z,24.67
2022-08-16T02:01:22.955Z,29.42
2022-08-16T02:03:52.649Z,28.40
2022-08-16T02:06:33.827Z,26.50
2022-08-16T02:09:05.359Z,30.25
2022-08-16T02:11:47.584Z,35.47
2022-08-16T02:14:18.125Z,27.17
2022-08-16T02:16:45.174Z,27.95
2022-08-16T02:19:16.109Z,23.90
2022-08-16T02:22:08.584Z,28.67
2022-08-16T02:24:42.158Z,28.23
2022-08-16T02:27:12.849Z,27.63
2022-08-16T02:29:41.542Z,25.83
2022-08-16T02:32:50.235Z,23.75
2022-08-16T02:34:58.396Z,27.50
2022-08-16T02:37:51.175Z,29.40
2022-08-16T02:40:13.328Z,35.95
2022-08-16T02:42:45.627Z,27.85
2022-08-16T02:45:17.309Z,28.83
2022-08-16T02:48:00.738Z,31.48
2022-08-16T02:51:04.111Z,26.67
2022-08-16T02:53:23.545Z,30.70
2022-08-16T02:55:51.500Z,29.70
2022-08-16T02:58:20.542Z,31.35
2022-08-16T03:00:57.173Z,29.10
2022-08-16T03:03:26.393Z,29.33
2022-08-16T03:05:54.347Z,29.90
2022-08-16T03:08:50.267Z,34.17
2022-08-16T03:11:16.931Z,30.55
2022-08-16T03:13:51.201Z,29.05
2022-08-16T03:16:38.250Z,32.47
2022-08-16T03:19:08.338Z,34.45
2022-08-16T03:21:37.763Z,29.92
2022-08-16T03:24:28.551Z,31.05
2022-08-16T03:26:59.239Z,31.63
2022-08-16T03:29:30.067Z,29.42
2022-08-16T03:31:59.191Z,29.38
2022-08-16T03:34:26.995Z,34.03
2022-08-16T03:36:54.749Z,31.60
2022-08-16T03:39:22.134Z,33.25
2022-08-16T03:41:51.318Z,30.60
2022-08-16T03:44:44.158Z,36.53
2022-08-16T03:47:19.265Z,38.20
2022-08-16T03:49:51.641Z,38.33
2022-08-16T03:52:23.466Z,32.78
2022-08-16T03:54:57.469Z,32.13
2022-08-16T03:57:24.945Z,37.15
2022-08-16T03:59:59.081Z,34.47
2022-08-16T04:02:31.735Z,38.15
2022-08-16T04:04:58.865Z,39.17
2022-08-16T04:07:25.889Z,38.58
2022-08-16T04:09:52.703Z,32.28
2022-08-16T04:12:53.479Z,37.55
2022-08-16T04:15:09.631Z,37.13
2022-08-16T04:17:37.225Z,37.50
2022-08-16T04:20:11.080Z,37.40
2022-08-16T04:22:56.197Z,42.15
2022-08-16T04:25:23.535Z,36.95
2022-08-16T04:27:54.121Z,40.60
2022-08-16T04:30:30.235Z,45.90
2022-08-16T04:32:58.785Z,42.85
2022-08-16T04:35:26.433Z,46.63
2022-08-16T04:38:00.890Z,45.80
2022-08-16T04:40:38.502Z,45.13
2022-08-16T04:43:05.805Z,47.28
2022-08-16T04:45:36.628Z,48.33
2022-08-16T04:48:04.405Z,43.17
2022-08-16T04:50:31.384Z,48.03
2022-08-16T04:52:59.241Z,51.08
2022-08-16T04:55:37.939Z,52.92
2022-08-16T04:58:43.693Z,53.47
2022-08-16T05:00:55.055Z,46.45
2022-08-16T05:03:21.951Z,53.80
2022-08-16T05:05:58.996Z,52.03
2022-08-16T05:08:30.915Z,52.00
2022-08-16T05:11:05.504Z,61.40
2022-08-16T05:13:41.134Z,53.28
2022-08-16T05:16:27.605Z,50.55
2022-08-16T05:18:58.610Z,49.92
2022-08-16T05:21:27.040Z,53.72
2022-08-16T05:23:58.685Z,54.17
2022-08-16T05:26:29.256Z,56.25
2022-08-16T05:28:57.612Z,58.22
2022-08-16T05:31:29.872Z,57.05
2022-08-16T05:33:59.537Z,54.75
2022-08-16T05:36:33.810Z,46.58
2022-08-16T05:39:02.872Z,53.38
2022-08-16T05:41:29.634Z,55.92
2022-08-16T05:44:00.256Z,52.88
2022-08-16T05:46:32.589Z,53.45
2022-08-16T05:49:09.048Z,57.55
2022-08-16T05:51:38.991Z,52.63
2022-08-16T05:54:08.185Z,53.53
2022-08-16T05:56:37.379Z,51.30
2022-08-16T05:59:06.430Z,55.92
2022-08-16T06:01:38.415Z,50.83
2022-08-16T06:04:13.088Z,60.55
2022-08-16T06:06:57.573Z,57.35
2022-08-16T06:09:43.837Z,57.28
2022-08-16T06:12:27.177Z,54.38
2022-08-16T06:14:59.164Z,54.17
2022-08-16T06:17:43.164Z,62.25
2022-08-16T06:20:14.863Z,59.50
2022-08-16T06:22:47.741Z,59.17
2022-08-16T06:25:36.107Z,58.78
2022-08-16T06:28:08.948Z,56.05
2022-08-16T06:30:43.279Z,57.13
2022-08-16T06:33:12.718Z,55.15
2022-08-16T06:35:40.575Z,55.97
2022-08-16T06:38:33.684Z,56.00
2022-08-16T06:40:55.608Z,53.33
2022-08-16T06:43:27.782Z,50.67
2022-08-16T06:45:55.618Z,45.83
2022-08-16T06:48:32.941Z,46.95
2022-08-16T06:51:02.642Z,46.08
2022-08-16T06:53:29.806Z,46.10
2022-08-16T06:56:00.758Z,39.88
2022-08-16T06:58:31.717Z,41.10
2022-08-16T07:01:03.065Z,44.00
2022-08-16T07:03:55.957Z,41.42
2022-08-16T07:06:26.714Z,42.38
2022-08-16T07:08:54.822Z,42.17
2022-08-16T07:11:45.765Z,40.28
2022-08-16T07:14:24.333Z,37.15
2022-08-16T07:16:55.134Z,40.35
2022-08-16T07:19:21.963Z,44.67
2022-08-16T07:22:39.139Z,40.08
2022-08-16T07:24:55.716Z,34.75
2022-08-16T07:27:22.555Z,40.05
2022-08-16T07:29:55.661Z,39.08
2022-08-16T07:32:29.654Z,34.20
2022-08-16T07:34:58.768Z,34.80
2022-08-16T07:37:25.665Z,36.80
2022-08-16T07:39:56.956Z,35.72
2022-08-16T07:42:34.673Z,36.08
2022-08-16T07:45:03.568Z,35.40
2022-08-16T07:47:36.796Z,35.78
2022-08-16T07:50:05.444Z,31.20
2022-08-16T07:52:34.401Z,36.15
2022-08-16T07:55:01.394Z,35.40
2022-08-16T07:57:28.202Z,30.90
2022-08-16T07:59:57.092Z,35.00
2022-08-16T08:02:27.511Z,30.20
2022-08-16T08:04:56.170Z,31.25
2022-08-16T08:07:27.511Z,25.15
2022-08-16T08:09:56.430Z,24.63
2022-08-16T08:12:31.382Z,22.15
2022-08-16T08:14:59.501Z,16.65
2022-08-16T08:17:42.564Z,21.30
2022-08-16T08:20:13.513Z,22.40
2022-08-16T08:23:00.804Z,22.83
2022-08-16T08:25:53.707Z,20.40
2022-08-16T08:28:17.872Z,17.70
2022-08-16T08:30:50.961Z,15.20
2022-08-16T08:33:27.740Z,19.10
2022-08-16T08:36:01.149Z,17.08
2022-08-16T08:38:45.071Z,14.63
2022-08-16T08:41:15.412Z,12.25
2022-08-16T08:43:47.154Z,13.80
2022-08-16T08:46:21.174Z,13.27
2022-08-16T08:49:01.940Z,13.93
2022-08-16T08:51:35.696Z,12.15
2022-08-16T08:54:09.447Z,14.90
2022-08-16T08:56:45.313Z,13.13
2022-08-16T08:59:20.370Z,10.50
2022-08-16T09:01:57.403Z,10.13
2022-08-16T09:04:28.956Z,9.88
2022-08-16T09:06:58.452Z,10.98
2022-08-16T09:09:33.170Z,14.43
2022-08-16T09:12:06.516Z,14.43
2022-08-16T09:14:38.768Z,13.93
2022-08-16T09:17:38.165Z,11.23
2022-08-16T09:20:05.940Z,8.90
2022-08-16T09:22:34.657Z,17.92
2022-08-16T09:25:09.739Z,16.88
2022-08-16T09:27:57.083Z,12.68
2022-08-16T09:30:34.789Z,11.77
2022-08-16T09:33:12.071Z,12.00
2022-08-16T09:35:39.464Z,12.07
2022-08-16T09:38:09.955Z,16.13
2022-08-16T09:40:43.965Z,12.48
2022-08-16T09:43:46.371Z,16.75
2022-08-16T09:46:00.518Z,15.88
2022-08-16T09:48:44.182Z,15.85
2022-08-16T09:51:13.360Z,13.18
2022-08-16T09:53:41.843Z,18.27
2022-08-16T09:56:31.556Z,13.38
2022-08-16T09:59:04.976Z,13.32
2022-08-16T10:01:36.493Z,18.13
2022-08-16T10:04:13.106Z,17.55
2022-08-16T10:06:54.085Z,18.00
2022-08-16T10:09:25.310Z,15.13
2022-08-16T10:12:11.652Z,17.48
2022-08-16T10:14:46.397Z,15.57
2022-08-16T10:17:13.584Z,17.73
2022-08-16T10:19:43.374Z,10.80
2022-08-16T10:22:12.798Z,18.73
2022-08-16T10:27:18.693Z,16.13
2022-08-16T10:28:05.892Z,15.23
2022-08-16T10:30:43.690Z,17.08
2022-08-16T10:33:13.694Z,13.73
2022-08-16T10:35:46.571Z,17.13
2022-08-16T10:38:27.232Z,12.77
2022-08-16T10:40:54.823Z,12.05
2022-08-16T10:43:21.712Z,12.73
2022-08-16T10:46:00.290Z,13.23
2022-08-16T10:48:29.990Z,12.68
2022-08-16T10:50:59.482Z,10.43
2022-08-16T10:53:32.762Z,9.82
2022-08-16T10:56:02.431Z,13.50
2022-08-16T10:58:34.281Z,16.33
2022-08-16T11:03:57.412Z,11.10
2022-08-16T11:06:26.998Z,10.70
2022-08-16T11:14:31.856Z,10.68
2022-08-16T11:17:02.746Z,12.18
2022-08-16T11:20:00.544Z,14.70
2022-08-16T11:22:41.863Z,9.88
2022-08-16T11:25:12.380Z,14.13
2022-08-16T11:27:39.773Z,9.07
2022-08-16T11:30:09.373Z,13.90
2022-08-16T11:32:39.728Z,9.88
2022-08-16T11:35:15.265Z,9.65
2022-08-16T11:40:47.063Z,8.20
2022-08-16T11:43:23.769Z,9.15
2022-08-16T11:45:55.194Z,8.63
2022-08-16T11:48:25.988Z,8.80
2022-08-16T11:50:54.122Z,7.47
2022-08-16T11:53:22.139Z,10.32
2022-08-16T11:55:54.448Z,9.60
2022-08-16T11:58:23.237Z,8.73
2022-08-16T12:00:53.325Z,10.23
2022-08-16T12:03:34.973Z,7.07
2022-08-16T12:06:25.146Z,8.73
2022-08-16T12:09:01.061Z,7.35
2022-08-16T12:11:31.503Z,7.90
2022-08-16T12:14:04.370Z,8.15
2022-08-16T12:16:34.236Z,11.55
2022-08-16T12:19:06.963Z,8.13
2022-08-16T12:21:58.184Z,11.25
2022-08-16T12:24:28.197Z,9.93
2022-08-16T12:26:56.034Z,10.85
2022-08-16T12:29:25.830Z,10.15
2022-08-16T12:32:01.336Z,10.75
2022-08-16T12:34:50.865Z,14.85
2022-08-16T12:37:24.138Z,6.80
2022-08-16T12:39:56.462Z,9.38
2022-08-16T12:42:34.684Z,7.90
2022-08-16T12:45:09.700Z,10.10
2022-08-16T12:48:09.909Z,8.75
2022-08-16T12:50:42.671Z,8.77
2022-08-16T12:53:18.019Z,11.48
2022-08-16T12:55:45.546Z,7.70
2022-08-16T12:58:49.770Z,9.20
2022-08-16T13:01:01.901Z,7.95
2022-08-16T13:03:29.130Z,8.35
2022-08-16T13:05:59.616Z,10.77
2022-08-16T13:08:30.723Z,7.47
2022-08-16T13:11:01.889Z,8.02
2022-08-16T13:13:29.591Z,8.43
2022-08-16T13:16:03.621Z,10.60
2022-08-16T13:18:34.512Z,11.18
2022-08-16T13:21:08.066Z,7.57
2022-08-16T13:23:43.748Z,6.68
2022-08-16T13:26:11.046Z,7.05
2022-08-16T13:28:38.357Z,11.63
2022-08-16T13:31:05.857Z,10.18
2022-08-16T13:33:37.161Z,8.32
2022-08-16T13:36:21.224Z,7.30
2022-08-16T13:38:57.665Z,7.97
2022-08-16T13:41:26.949Z,9.38
2022-08-16T13:43:59.733Z,9.70
2022-08-16T13:46:28.868Z,11.13
2022-08-16T13:48:58.032Z,8.82
2022-08-16T13:51:29.392Z,10.82
2022-08-16T13:54:04.092Z,6.20
2022-08-16T13:56:37.446Z,9.02
2022-08-16T13:59:13.897Z,8.82
2022-08-16T14:01:55.155Z,7.80
2022-08-16T14:04:26.499Z,6.70
2022-08-16T14:06:55.456Z,9.20
2022-08-16T14:09:24.864Z,8.25
2022-08-16T14:11:54.967Z,10.95
2022-08-16T14:14:28.517Z,10.10
2022-08-16T14:16:58.661Z,8.20
2022-08-16T14:19:27.885Z,8.35
2022-08-16T14:22:14.479Z,6.68
2022-08-16T14:24:47.405Z,6.72
2022-08-16T14:27:21.340Z,7.40
2022-08-16T14:29:50.911Z,8.23
2022-08-16T14:32:33.885Z,8.40
2022-08-16T14:35:14.097Z,9.52
2022-08-16T14:37:43.391Z,6.45
2022-08-16T14:40:13.454Z,10.18
2022-08-16T14:42:44.161Z,8.35
2022-08-16T14:45:15.598Z,8.48
2022-08-16T14:47:44.553Z,8.40
2022-08-16T14:50:15.249Z,8.68
2022-08-16T14:52:56.228Z,8.95
2022-08-16T14:55:24.884Z,7.75
2022-08-16T14:57:54.518Z,6.22
2022-08-16T15:00:32.898Z,7.32
2022-08-16T15:03:02.539Z,6.28
2022-08-16T15:07:59.054Z,7.70
2022-08-16T15:10:29.449Z,5.13
2022-08-16T15:13:01.068Z,5.88
2022-08-16T15:15:30.667Z,6.18
2022-08-16T15:18:01.473Z,5.47
2022-08-16T15:20:34.029Z,6.20
2022-08-16T15:23:05.293Z,10.63
2022-08-16T15:25:41.102Z,10.63
2022-08-16T15:28:30.982Z,7.75
2022-08-16T15:31:03.413Z,6.50
2022-08-16T15:33:35.150Z,7.53
2022-08-16T15:36:03.809Z,6.70
2022-08-16T15:39:02.937Z,7.25
2022-08-16T15:41:31.513Z,6.65
2022-08-16T15:44:05.216Z,5.45
2022-08-16T15:46:56.371Z,6.18
2022-08-16T15:49:34.520Z,8.10
2022-08-16T15:52:20.664Z,8.35
2022-08-16T15:54:53.191Z,6.18
2022-08-16T15:57:25.171Z,9.88
2022-08-16T15:59:55.800Z,6.68
2022-08-16T16:02:30.763Z,7.55
2022-08-16T16:05:01.860Z,8.95
2022-08-16T16:07:31.319Z,8.25
2022-08-16T16:10:00.765Z,9.48
2022-08-16T16:12:54.164Z,8.45
2022-08-16T16:15:19.663Z,7.93
2022-08-16T16:17:50.996Z,11.50
2022-08-16T16:20:27.307Z,6.70
2022-08-16T16:23:04.446Z,6.22
2022-08-16T16:25:44.680Z,9.35
2022-08-16T16:29:05.011Z,8.75
2022-08-16T16:31:02.966Z,6.18
2022-08-16T16:33:30.997Z,10.48
2022-08-16T16:36:04.012Z,7.00
2022-08-16T16:38:35.611Z,9.73
2022-08-16T16:41:09.921Z,19.45
2022-08-16T16:43:40.920Z,18.65
2022-08-16T16:46:40.719Z,24.67
2022-08-16T16:48:58.239Z,27.90
2022-08-16T16:51:28.012Z,15.52
2022-08-16T16:53:57.544Z,7.65
2022-08-16T16:56:32.217Z,7.15
2022-08-16T16:59:06.969Z,6.43
2022-08-16T17:01:59.608Z,10.82
2022-08-16T17:04:31.729Z,10.05
2022-08-16T17:07:01.598Z,9.23
2022-08-16T17:09:29.548Z,9.57
2022-08-16T17:11:56.977Z,8.65
2022-08-16T17:17:13.131Z,7.32
2022-08-16T17:19:41.651Z,8.50
2022-08-16T17:22:15.516Z,10.95
2022-08-16T17:24:50.581Z,8.75
2022-08-16T17:27:34.173Z,12.45
2022-08-16T17:30:15.747Z,10.02
2022-08-16T17:32:54.661Z,8.05
2022-08-16T17:35:33.971Z,8.80
2022-08-16T17:38:39.046Z,8.20
2022-08-16T17:39:28.064Z,8.05
2022-08-16T17:41:09.999Z,8.63
2022-08-16T17:43:44.371Z,9.30
2022-08-16T17:46:41.485Z,11.23
2022-08-16T17:49:02.970Z,10.52
2022-08-16T17:51:30.988Z,8.45
2022-08-16T17:53:58.783Z,10.60
2022-08-16T17:56:26.192Z,12.73
2022-08-16T17:58:54.457Z,9.50
2022-08-16T18:01:25.731Z,11.10
2022-08-16T18:04:06.638Z,10.38
2022-08-16T18:06:36.868Z,10.15
2022-08-16T18:09:04.230Z,8.23
2022-08-16T18:11:35.735Z,11.27
2022-08-16T18:14:04.120Z,8.63
2022-08-16T18:16:32.419Z,8.43
2022-08-16T18:19:00.507Z,14.20
2022-08-16T18:21:46.715Z,8.73
2022-08-16T18:24:15.095Z,8.50
2022-08-16T18:26:42.214Z,8.52
2022-08-16T18:29:09.272Z,7.68
2022-08-16T18:31:36.481Z,7.72
2022-08-16T18:34:03.582Z,11.00
2022-08-16T18:36:31.857Z,12.95
2022-08-16T18:38:59.308Z,9.70
2022-08-16T18:41:26.824Z,9.98
2022-08-16T18:43:58.769Z,14.68
2022-08-16T18:46:43.408Z,8.70
2022-08-16T18:49:11.864Z,10.23
2022-08-16T18:51:44.892Z,12.43
2022-08-16T18:54:16.709Z,10.70
2022-08-16T18:56:55.932Z,13.10
2022-08-16T18:59:27.474Z,9.13
2022-08-16T19:01:59.766Z,13.80
2022-08-16T19:04:56.197Z,12.02
2022-08-16T19:07:16.486Z,10.77
2022-08-16T19:09:45.909Z,10.88
2022-08-16T19:12:15.682Z,11.13
2022-08-16T19:14:45.697Z,13.10
2022-08-16T19:17:12.556Z,13.35
2022-08-16T19:19:39.816Z,13.98
2022-08-16T19:22:06.594Z,11.30
2022-08-16T19:24:33.398Z,11.50
2022-08-16T19:27:01.764Z,11.85
2022-08-16T19:29:29.471Z,12.82
2022-08-16T19:31:56.686Z,14.95
2022-08-16T19:34:23.613Z,19.85
2022-08-16T19:36:50.517Z,15.35
2022-08-16T19:39:17.572Z,17.75
2022-08-16T19:41:52.098Z,15.30
2022-08-16T19:44:21.590Z,15.75
2022-08-16T19:46:49.443Z,20.00
2022-08-16T19:49:17.053Z,23.42
2022-08-16T19:51:46.251Z,21.85
2022-08-16T19:54:12.988Z,19.83
2022-08-16T19:56:39.731Z,19.58
2022-08-16T19:59:39.663Z,21.80
2022-08-16T20:01:53.642Z,20.15
2022-08-16T20:04:22.703Z,22.33
2022-08-16T20:06:52.436Z,23.95
2022-08-16T20:09:20.812Z,25.58
2022-08-16T20:11:49.614Z,26.27
2022-08-16T20:14:24.899Z,23.95
2022-08-16T20:16:54.518Z,21.73
2022-08-16T20:19:21.226Z,21.70
2022-08-16T20:21:48.090Z,18.92
2022-08-16T20:24:33.663Z,19.02
2022-08-16T20:27:02.954Z,21.33
2022-08-16T20:29:29.746Z,19.30
2022-08-16T20:31:57.595Z,21.55
2022-08-16T20:34:24.366Z,20.45
2022-08-16T20:36:51.089Z,22.60
2022-08-16T20:39:17.826Z,17.70
2022-08-16T20:41:44.655Z,21.40
2022-08-16T20:44:12.774Z,21.77
2022-08-16T20:46:39.544Z,21.50
2022-08-16T20:49:09.348Z,20.60
2022-08-16T20:51:46.979Z,23.50
2022-08-16T20:54:20.270Z,26.98
2022-08-16T20:56:49.007Z,22.75
2022-08-16T20:59:17.277Z,22.00
2022-08-16T21:01:49.696Z,23.27
2022-08-16T21:04:22.796Z,22.75
2022-08-16T21:06:54.226Z,22.85
2022-08-16T21:09:28.160Z,22.38
2022-08-16T21:11:57.978Z,20.00
2022-08-16T21:14:26.572Z,25.40
2022-08-16T21:16:56.247Z,23.77
2022-08-16T21:19:24.521Z,21.38
2022-08-16T21:21:53.736Z,21.65
2022-08-16T21:24:21.864Z,25.45
2022-08-16T21:26:55.589Z,21.38
2022-08-16T21:29:28.432Z,19.45
2022-08-16T21:32:13.902Z,22.08
2022-08-16T21:34:42.282Z,19.17
2022-08-16T21:37:10.844Z,21.70
2022-08-16T21:39:38.853Z,22.17
2022-08-16T21:42:15.210Z,18.60
2022-08-16T21:44:44.511Z,22.88
2022-08-16T21:47:12.515Z,19.55
2022-08-16T21:49:40.696Z,24.23
2022-08-16T21:52:25.932Z,28.17
2022-08-16T21:54:56.267Z,30.50
2022-08-16T21:57:23.942Z,26.02
2022-08-16T21:59:52.381Z,30.30
2022-08-16T22:02:21.107Z,38.80
2022-08-16T22:04:49.818Z,35.72
2022-08-16T22:07:18.336Z,32.63
2022-08-16T22:09:47.709Z,31.75
2022-08-16T22:12:24.375Z,31.38
2022-08-16T22:14:51.160Z,30.42
2022-08-16T22:17:18.426Z,30.10
2022-08-16T22:19:47.969Z,31.23
2022-08-16T22:22:15.417Z,33.42
2022-08-16T22:24:42.170Z,29.15
2022-08-16T22:27:09.016Z,35.22
2022-08-16T22:29:39.501Z,40.17
2022-08-16T22:32:09.370Z,41.83
2022-08-16T22:34:37.581Z,42.85
2022-08-16T22:37:05.466Z,36.78
2022-08-16T22:39:33.899Z,37.45
2022-08-16T22:42:08.893Z,45.58
2022-08-16T22:44:37.911Z,43.25
2022-08-16T22:47:05.161Z,42.45
2022-08-16T22:49:33.554Z,52.33
2022-08-16T22:52:09.578Z,45.03
2022-08-16T22:54:48.142Z,43.63
2022-08-16T22:57:16.785Z,38.72
2022-08-16T22:59:47.138Z,45.35
2022-08-16T23:02:19.627Z,40.92
2022-08-16T23:04:46.396Z,45.45
2022-08-16T23:07:14.218Z,45.22
2022-08-16T23:09:41.009Z,42.75
2022-08-16T23:12:08.342Z,43.78
2022-08-16T23:14:36.287Z,44.92
2022-08-16T23:17:03.849Z,45.35
2022-08-16T23:19:30.934Z,41.60
2022-08-16T23:21:58.770Z,43.30
2022-08-16T23:24:27.613Z,44.90
2022-08-16T23:26:54.355Z,43.08
2022-08-16T23:29:25.184Z,45.85
2022-08-16T23:32:09.050Z,43.40
2022-08-16T23:34:35.867Z,40.17
2022-08-16T23:37:02.653Z,42.20
2022-08-16T23:39:30.928Z,42.55
2022-08-16T23:41:58.865Z,43.15
2022-08-16T23:44:42.280Z,43.70
2022-08-16T23:47:15.327Z,45.95
2022-08-16T23:49:57.136Z,42.30
2022-08-16T23:52:53.299Z,39.00
2022-08-16T23:55:17.376Z,45.72
2022-08-16T23:57:44.877Z,43.70
